Time;durP1;ratioP1;P1;durP2;ratioP2;P2;SDS_P1;SDS_P2;PMS_P1;PMS_P2;Temp;Humidity;BMP_temperature;BMP_pressure;BME280_temperature;BME280_humidity;BME280_pressure;Samples;Min_cycle;Max_cycle;Signal;HPM_P1;HPM_P2
2022/03/10 00:02:06;;;;;;;26.73;17.30;;;;;;;;;;5052014;28;20182;-66
2022/03/10 00:04:32;;;;;;;27.10;15.10;;;;;;;;;;5049183;28;20166;-67
2022/03/10 00:06:58;;;;;;;28.20;17.10;;;;;;;;;;5047689;28;20184;-67
2022/03/10 00:09:23;;;;;;;25.50;15.80;;;;;;;;;;5043480;28;20208;-67
2022/03/10 00:11:48;;;;;;;27.43;16.50;;;;;;;;;;5050414;28;20227;-66
2022/03/10 00:14:14;;;;;;;29.90;17.30;;;;;;;;;;5050556;28;20174;-66
2022/03/10 00:16:39;;;;;;;27.33;17.47;;;;;;;;;;5048758;28;20227;-67
2022/03/10 00:19:04;;;;;;;24.93;15.53;;;;;;;;;;5039843;28;20217;-69
2022/03/10 00:21:29;;;;;;;29.77;17.60;;;;;;;;;;5036263;28;20193;-69
2022/03/10 00:23:55;;;;;;;29.07;16.90;;;;;;;;;;5051606;28;20619;-67
2022/03/10 00:26:20;;;;;;;26.80;17.00;;;;;;;;;;5050951;28;20633;-69
2022/03/10 00:28:45;;;;;;;29.00;16.67;;;;;;;;;;5052666;28;20197;-69
2022/03/10 00:31:10;;;;;;;31.00;18.67;;;;;;;;;;5052654;28;20196;-67
2022/03/10 00:33:35;;;;;;;30.47;17.07;;;;;;;;;;5051103;28;20227;-66
2022/03/10 00:36:00;;;;;;;25.70;16.53;;;;;;;;;;5027004;28;20194;-69
2022/03/10 00:38:26;;;;;;;25.30;16.40;;;;;;;;;;5026040;28;20208;-69
2022/03/10 00:40:51;;;;;;;26.47;16.77;;;;;;;;;;5045823;28;20217;-67
2022/03/10 00:43:16;;;;;;;27.47;16.57;;;;;;;;;;5029948;28;20182;-66
2022/03/10 00:45:41;;;;;;;28.67;16.17;;;;;;;;;;5045492;28;20249;-68
2022/03/10 00:48:07;;;;;;;26.77;17.00;;;;;;;;;;5051812;28;20432;-66
2022/03/10 00:50:32;;;;;;;34.07;16.07;;;;;;;;;;5050301;28;20207;-67
2022/03/10 00:52:59;;;;;;;24.80;16.77;;;;;;;;;;5051785;28;20178;-66
2022/03/10 00:55:24;;;;;;;26.60;16.97;;;;;;;;;;5048743;28;20209;-68
2022/03/10 00:57:49;;;;;;;30.27;17.03;;;;;;;;;;5051997;28;20233;-67
2022/03/10 01:00:15;;;;;;;26.40;17.50;;;;;;;;;;5047532;28;20216;-69
2022/03/10 01:02:40;;;;;;;25.57;17.80;;;;;;;;;;5046945;28;20204;-69
2022/03/10 01:05:06;;;;;;;31.57;17.73;;;;;;;;;;5051857;28;20173;-68
2022/03/10 01:07:32;;;;;;;27.27;16.83;;;;;;;;;;5041696;28;20557;-68
2022/03/10 01:09:57;;;;;;;30.77;17.77;;;;;;;;;;5051828;28;20690;-69
2022/03/10 01:12:22;;;;;;;33.43;16.97;;;;;;;;;;5051354;28;20184;-66
2022/03/10 01:14:47;;;;;;;33.27;19.17;;;;;;;;;;5051896;28;20509;-67
2022/03/10 01:17:12;;;;;;;29.67;17.60;;;;;;;;;;5051369;28;20257;-66
2022/03/10 01:19:38;;;;;;;28.70;17.87;;;;;;;;;;5051788;28;20212;-66
2022/03/10 01:22:03;;;;;;;30.10;17.63;;;;;;;;;;5051983;28;20276;-67
2022/03/10 01:24:28;;;;;;;27.97;18.37;;;;;;;;;;5051598;28;20189;-66
2022/03/10 01:26:53;;;;;;;27.27;17.83;;;;;;;;;;5051686;28;20256;-66
2022/03/10 01:29:19;;;;;;;29.07;18.77;;;;;;;;;;5047724;28;20209;-65
2022/03/10 01:31:44;;;;;;;30.63;17.97;;;;;;;;;;5046839;28;20170;-69
2022/03/10 01:34:09;;;;;;;29.83;17.93;;;;;;;;;;5047248;28;20646;-66
2022/03/10 01:36:34;;;;;;;33.37;18.27;;;;;;;;;;5045792;28;20639;-66
2022/03/10 01:39:04;;;;;;;31.57;19.40;;;;;;;;;;5051222;28;20267;-66
2022/03/10 01:41:30;;;;;;;27.90;17.73;;;;;;;;;;5050621;28;20185;-67
2022/03/10 01:43:59;;;;;;;31.17;19.43;;;;;;;;;;5051127;28;20287;-66
2022/03/10 01:46:25;;;;;;;29.77;17.53;;;;;;;;;;5047180;28;20181;-66
2022/03/10 01:48:50;;;;;;;32.27;18.47;;;;;;;;;;5043515;28;20728;-66
2022/03/10 01:51:16;;;;;;;30.33;18.33;;;;;;;;;;5050512;28;20267;-66
2022/03/10 01:53:42;;;;;;;29.50;18.80;;;;;;;;;;5049468;28;20680;-66
2022/03/10 01:56:07;;;;;;;29.90;17.47;;;;;;;;;;5028750;28;20186;-68
2022/03/10 01:58:33;;;;;;;29.23;17.13;;;;;;;;;;5048880;28;20181;-68
2022/03/10 02:00:58;;;;;;;29.53;17.47;;;;;;;;;;5048628;28;20194;-68
2022/03/10 02:03:23;;;;;;;29.17;17.97;;;;;;;;;;5050979;28;20655;-68
2022/03/10 02:05:49;;;;;;;30.13;18.03;;;;;;;;;;5030378;28;20178;-66
2022/03/10 02:11:12;;;;;;;25.07;16.73;;;;;;;;;;5013273;28;20217;-68
2022/03/10 02:13:37;;;;;;;33.40;18.60;;;;;;;;;;5048392;28;20193;-67
2022/03/10 02:18:46;;;;;;;26.17;17.20;;;;;;;;;;5047602;28;20212;-66
2022/03/10 02:21:11;;;;;;;27.60;17.97;;;;;;;;;;5049585;28;20205;-67
2022/03/10 02:23:36;;;;;;;26.43;16.97;;;;;;;;;;5049793;28;20215;-67
2022/03/10 02:26:02;;;;;;;25.50;16.90;;;;;;;;;;5047219;28;20182;-67
2022/03/10 02:28:27;;;;;;;24.60;16.00;;;;;;;;;;5049031;28;20193;-69
2022/03/10 02:30:53;;;;;;;26.30;17.03;;;;;;;;;;5048105;28;20208;-67
2022/03/10 02:33:18;;;;;;;27.00;16.73;;;;;;;;;;5022848;28;20192;-67
2022/03/10 02:35:43;;;;;;;24.80;16.53;;;;;;;;;;5048575;28;20177;-66
2022/03/10 02:38:08;;;;;;;28.00;17.43;;;;;;;;;;5049146;28;20687;-67
2022/03/10 02:40:34;;;;;;;29.67;18.03;;;;;;;;;;5048793;28;20545;-68
2022/03/10 02:42:59;;;;;;;31.40;17.17;;;;;;;;;;5047969;28;20654;-67
2022/03/10 02:45:25;;;;;;;26.17;16.80;;;;;;;;;;5028355;28;20203;-67
2022/03/10 02:47:50;;;;;;;26.80;17.57;;;;;;;;;;5048501;28;20250;-68
2022/03/10 02:50:16;;;;;;;32.73;19.73;;;;;;;;;;5047388;28;20356;-66
2022/03/10 02:52:42;;;;;;;30.53;18.90;;;;;;;;;;5047713;28;20190;-69
2022/03/10 02:55:07;;;;;;;29.90;18.93;;;;;;;;;;5045226;28;20538;-67
2022/03/10 02:57:33;;;;;;;28.90;18.60;;;;;;;;;;5045267;28;20185;-66
2022/03/10 02:59:59;;;;;;;29.53;17.67;;;;;;;;;;5049265;28;20197;-66
2022/03/10 03:02:25;;;;;;;28.30;17.83;;;;;;;;;;5048043;28;20182;-67
2022/03/10 03:04:51;;;;;;;31.53;18.63;;;;;;;;;;5049195;28;20184;-67
2022/03/10 03:07:16;;;;;;;26.17;17.53;;;;;;;;;;5048650;28;20177;-67
2022/03/10 03:09:42;;;;;;;33.87;19.07;;;;;;;;;;5051084;28;20241;-67
2022/03/10 03:12:07;;;;;;;30.77;18.03;;;;;;;;;;5052791;28;20188;-66
2022/03/10 03:14:32;;;;;;;26.73;17.03;;;;;;;;;;5051444;28;20256;-67
2022/03/10 03:16:58;;;;;;;28.33;18.57;;;;;;;;;;5033651;28;20174;-67
2022/03/10 03:19:23;;;;;;;30.00;18.43;;;;;;;;;;5051841;28;20194;-67
2022/03/10 03:21:48;;;;;;;28.53;17.70;;;;;;;;;;5049781;28;20201;-67
2022/03/10 03:24:13;;;;;;;30.10;18.90;;;;;;;;;;5052669;28;20204;-66
2022/03/10 03:26:39;;;;;;;29.90;18.23;;;;;;;;;;5051925;28;20272;-67
2022/03/10 03:29:04;;;;;;;29.40;19.30;;;;;;;;;;5050842;28;20201;-67
2022/03/10 03:31:29;;;;;;;28.43;17.23;;;;;;;;;;5051791;28;20688;-69
2022/03/10 03:33:55;;;;;;;26.30;17.17;;;;;;;;;;5050949;28;20173;-67
2022/03/10 03:36:20;;;;;;;29.37;17.90;;;;;;;;;;5053212;28;20178;-68
2022/03/10 03:38:45;;;;;;;31.67;19.20;;;;;;;;;;5051044;28;20673;-67
2022/03/10 03:41:10;;;;;;;27.80;18.83;;;;;;;;;;5053183;28;20201;-67
2022/03/10 03:43:35;;;;;;;27.93;16.97;;;;;;;;;;5050549;28;20181;-68
2022/03/10 03:46:01;;;;;;;29.67;19.70;;;;;;;;;;5053653;28;20182;-66
2022/03/10 03:48:26;;;;;;;31.93;18.47;;;;;;;;;;5049989;28;20248;-67
2022/03/10 03:50:51;;;;;;;34.47;19.20;;;;;;;;;;5050749;28;20197;-67
2022/03/10 03:53:16;;;;;;;30.33;17.97;;;;;;;;;;5048303;28;20694;-67
2022/03/10 03:55:42;;;;;;;29.63;18.77;;;;;;;;;;5048894;28;20177;-67
2022/03/10 03:58:07;;;;;;;30.43;18.87;;;;;;;;;;5046516;28;20181;-67
2022/03/10 04:00:32;;;;;;;31.70;18.63;;;;;;;;;;5049198;28;20209;-67
2022/03/10 04:02:57;;;;;;;28.93;17.57;;;;;;;;;;5050467;28;20269;-69
2022/03/10 04:05:22;;;;;;;30.60;18.23;;;;;;;;;;5050199;28;20186;-67
2022/03/10 04:07:47;;;;;;;29.27;18.57;;;;;;;;;;5051526;28;20272;-68
2022/03/10 04:10:13;;;;;;;31.87;20.13;;;;;;;;;;5050301;28;20197;-67
2022/03/10 04:12:38;;;;;;;31.20;18.67;;;;;;;;;;5050582;28;20174;-67
2022/03/10 04:15:04;;;;;;;31.87;18.50;;;;;;;;;;5050799;28;20166;-67
2022/03/10 04:17:29;;;;;;;30.40;19.03;;;;;;;;;;5050999;28;20173;-66
2022/03/10 04:19:54;;;;;;;29.70;17.90;;;;;;;;;;5049979;28;20196;-67
2022/03/10 04:22:19;;;;;;;28.60;17.93;;;;;;;;;;5050736;28;20200;-67
2022/03/10 04:24:44;;;;;;;32.53;18.23;;;;;;;;;;5050615;28;20185;-67
2022/03/10 04:27:10;;;;;;;26.47;16.73;;;;;;;;;;5048355;28;20212;-68
2022/03/10 04:29:35;;;;;;;29.90;17.90;;;;;;;;;;5051721;28;20748;-67
2022/03/10 04:32:00;;;;;;;29.33;17.77;;;;;;;;;;5051071;28;20178;-68
2022/03/10 04:34:25;;;;;;;31.23;17.83;;;;;;;;;;5049999;28;20878;-67
2022/03/10 04:36:50;;;;;;;28.07;18.10;;;;;;;;;;5051486;28;20166;-68
2022/03/10 04:39:16;;;;;;;27.93;17.20;;;;;;;;;;5048242;28;20213;-67
2022/03/10 04:41:41;;;;;;;29.63;17.27;;;;;;;;;;5051303;28;20184;-67
2022/03/10 04:44:06;;;;;;;31.07;18.10;;;;;;;;;;5050396;28;20222;-67
2022/03/10 04:46:31;;;;;;;28.70;17.87;;;;;;;;;;5050301;28;20180;-67
2022/03/10 04:48:56;;;;;;;29.13;18.50;;;;;;;;;;5050106;28;20375;-67
2022/03/10 04:51:22;;;;;;;28.50;17.83;;;;;;;;;;5050979;28;20185;-67
2022/03/10 04:53:47;;;;;;;30.43;19.63;;;;;;;;;;5046709;28;20569;-67
2022/03/10 04:56:13;;;;;;;31.37;18.77;;;;;;;;;;5051581;28;20174;-67
2022/03/10 04:58:38;;;;;;;28.17;17.90;;;;;;;;;;5034038;28;20182;-67
2022/03/10 05:01:03;;;;;;;28.73;17.93;;;;;;;;;;5046947;28;20578;-67
2022/03/10 05:03:28;;;;;;;28.57;18.10;;;;;;;;;;5050448;28;20185;-67
2022/03/10 05:05:54;;;;;;;30.60;18.83;;;;;;;;;;5044279;28;20243;-67
2022/03/10 05:08:19;;;;;;;29.90;18.37;;;;;;;;;;5043061;28;20750;-68
2022/03/10 05:10:44;;;;;;;29.90;18.60;;;;;;;;;;5048267;28;20202;-67
2022/03/10 05:13:09;;;;;;;33.57;18.97;;;;;;;;;;5047156;28;20244;-68
2022/03/10 05:15:35;;;;;;;28.20;17.77;;;;;;;;;;5047140;28;20729;-67
2022/03/10 05:18:01;;;;;;;30.60;18.83;;;;;;;;;;5042019;28;20186;-67
2022/03/10 05:20:26;;;;;;;29.07;17.40;;;;;;;;;;5048335;28;20213;-67
2022/03/10 05:22:59;;;;;;;31.27;18.70;;;;;;;;;;5049466;28;20178;-67
2022/03/10 05:25:30;;;;;;;30.10;18.97;;;;;;;;;;5048746;28;20273;-67
2022/03/10 05:27:55;;;;;;;29.73;18.93;;;;;;;;;;5050982;28;20185;-67
2022/03/10 05:30:20;;;;;;;35.07;18.37;;;;;;;;;;5050184;28;20201;-67
2022/03/10 05:32:46;;;;;;;31.17;17.87;;;;;;;;;;5049705;28;20522;-71
2022/03/10 05:35:14;;;;;;;29.93;18.17;;;;;;;;;;5048209;28;20181;-67
2022/03/10 05:37:40;;;;;;;28.20;17.80;;;;;;;;;;5051869;28;20707;-67
2022/03/10 05:40:06;;;;;;;29.83;18.27;;;;;;;;;;5033555;28;20233;-67
2022/03/10 05:42:32;;;;;;;28.47;17.63;;;;;;;;;;5044741;28;20209;-67
2022/03/10 05:44:58;;;;;;;31.07;17.97;;;;;;;;;;5048338;28;20194;-67
2022/03/10 05:47:23;;;;;;;28.60;18.60;;;;;;;;;;5048773;28;20256;-67
2022/03/10 05:49:49;;;;;;;30.23;18.23;;;;;;;;;;5049759;28;20217;-67
2022/03/10 05:52:14;;;;;;;26.27;17.43;;;;;;;;;;5034019;28;20174;-67
2022/03/10 05:54:39;;;;;;;31.33;18.03;;;;;;;;;;5045644;28;20182;-67
2022/03/10 05:57:05;;;;;;;30.03;19.57;;;;;;;;;;5048012;28;20562;-67
2022/03/10 05:59:30;;;;;;;31.23;19.60;;;;;;;;;;5046583;28;20213;-67
2022/03/10 06:01:55;;;;;;;32.30;20.23;;;;;;;;;;5042828;28;20548;-66
2022/03/10 06:04:20;;;;;;;32.03;19.80;;;;;;;;;;5043196;28;20642;-67
2022/03/10 06:06:46;;;;;;;33.40;20.53;;;;;;;;;;5049760;28;20260;-67
2022/03/10 06:09:11;;;;;;;30.87;18.57;;;;;;;;;;5046756;28;20571;-67
2022/03/10 06:11:37;;;;;;;32.43;17.33;;;;;;;;;;5051284;28;20248;-66
2022/03/10 06:14:02;;;;;;;33.23;19.40;;;;;;;;;;5031075;28;20272;-67
2022/03/10 06:16:27;;;;;;;29.10;17.20;;;;;;;;;;5047933;28;20235;-66
2022/03/10 06:18:52;;;;;;;33.77;19.37;;;;;;;;;;5048379;28;20169;-67
2022/03/10 06:21:17;;;;;;;33.57;18.83;;;;;;;;;;5049745;28;20205;-67
2022/03/10 06:23:43;;;;;;;31.13;18.03;;;;;;;;;;5049102;28;20177;-66
2022/03/10 06:26:08;;;;;;;32.97;17.77;;;;;;;;;;5049219;28;20639;-67
2022/03/10 06:28:34;;;;;;;29.33;18.23;;;;;;;;;;5048342;28;20262;-67
2022/03/10 06:30:59;;;;;;;27.93;17.20;;;;;;;;;;5048054;28;20651;-66
2022/03/10 06:33:24;;;;;;;26.30;17.43;;;;;;;;;;5049281;28;20184;-68
2022/03/10 06:35:50;;;;;;;35.20;18.50;;;;;;;;;;5028670;28;20256;-67
2022/03/10 06:38:15;;;;;;;28.73;17.90;;;;;;;;;;5031404;28;20677;-66
2022/03/10 06:40:40;;;;;;;34.10;19.63;;;;;;;;;;5044061;28;20217;-67
2022/03/10 06:43:05;;;;;;;29.90;18.17;;;;;;;;;;5048757;28;20177;-67
2022/03/10 06:45:31;;;;;;;34.03;18.40;;;;;;;;;;5048432;28;20224;-67
2022/03/10 06:47:56;;;;;;;30.00;17.47;;;;;;;;;;5050400;28;20180;-67
2022/03/10 06:50:21;;;;;;;30.73;17.20;;;;;;;;;;5050333;28;20196;-67
2022/03/10 06:52:47;;;;;;;31.13;18.00;;;;;;;;;;5048974;28;20181;-67
2022/03/10 06:55:12;;;;;;;29.00;17.43;;;;;;;;;;5041846;28;20182;-67
2022/03/10 06:57:38;;;;;;;28.70;17.30;;;;;;;;;;5049744;28;20181;-67
2022/03/10 07:00:05;;;;;;;28.07;17.57;;;;;;;;;;5050670;28;20642;-66
2022/03/10 07:02:30;;;;;;;32.27;18.57;;;;;;;;;;5041369;28;20548;-66
2022/03/10 07:04:56;;;;;;;27.73;17.63;;;;;;;;;;5049145;28;20173;-67
2022/03/10 07:07:21;;;;;;;31.67;18.20;;;;;;;;;;5049539;28;20189;-66
2022/03/10 07:09:46;;;;;;;31.53;18.70;;;;;;;;;;5044492;28;20213;-66
2022/03/10 07:12:11;;;;;;;29.17;17.73;;;;;;;;;;5046848;28;20178;-67
2022/03/10 07:14:37;;;;;;;28.23;17.47;;;;;;;;;;5049869;28;20256;-66
2022/03/10 07:17:02;;;;;;;31.87;18.43;;;;;;;;;;5046840;28;20533;-67
2022/03/10 07:19:27;;;;;;;25.47;17.40;;;;;;;;;;5043799;28;20201;-66
2022/03/10 07:21:53;;;;;;;28.67;17.37;;;;;;;;;;5043435;28;20227;-67
2022/03/10 07:24:18;;;;;;;26.30;18.37;;;;;;;;;;5052161;28;20190;-67
2022/03/10 07:26:43;;;;;;;28.60;17.10;;;;;;;;;;5044365;28;20277;-67
2022/03/10 07:29:09;;;;;;;26.00;16.80;;;;;;;;;;5048668;28;20229;-66
2022/03/10 07:31:34;;;;;;;29.00;16.47;;;;;;;;;;5044508;28;20174;-67
2022/03/10 07:33:59;;;;;;;29.13;17.03;;;;;;;;;;5046932;28;20174;-66
2022/03/10 07:36:24;;;;;;;39.20;17.40;;;;;;;;;;5046068;28;20179;-66
2022/03/10 07:38:50;;;;;;;25.63;17.13;;;;;;;;;;5049852;28;20211;-66
2022/03/10 07:41:15;;;;;;;23.97;17.20;;;;;;;;;;5049023;28;20251;-67
2022/03/10 07:43:40;;;;;;;29.70;18.00;;;;;;;;;;5056204;28;20178;-67
2022/03/10 07:46:06;;;;;;;26.30;16.10;;;;;;;;;;5043147;28;20208;-67
2022/03/10 07:48:31;;;;;;;26.70;18.27;;;;;;;;;;5048877;28;20283;-67
2022/03/10 07:50:56;;;;;;;27.13;18.33;;;;;;;;;;5046002;28;20194;-67
2022/03/10 07:53:22;;;;;;;28.17;18.30;;;;;;;;;;5047426;28;20217;-67
2022/03/10 07:55:48;;;;;;;27.00;17.57;;;;;;;;;;5046843;28;20174;-67
2022/03/10 07:58:13;;;;;;;30.03;19.37;;;;;;;;;;5037159;28;20658;-67
2022/03/10 08:00:38;;;;;;;26.73;18.07;;;;;;;;;;5048556;28;20229;-67
2022/03/10 08:03:03;;;;;;;25.03;18.40;;;;;;;;;;5042194;28;20231;-67
2022/03/10 08:05:29;;;;;;;29.07;19.00;;;;;;;;;;5039994;28;20655;-66
2022/03/10 08:07:54;;;;;;;29.87;18.33;;;;;;;;;;5045429;28;20170;-67
2022/03/10 08:10:20;;;;;;;28.10;18.47;;;;;;;;;;5046433;28;20678;-67
2022/03/10 08:12:45;;;;;;;25.47;19.20;;;;;;;;;;5048265;28;20188;-66
2022/03/10 08:15:10;;;;;;;30.10;19.03;;;;;;;;;;5049568;28;20174;-67
2022/03/10 08:17:37;;;;;;;27.40;18.80;;;;;;;;;;5053131;28;20166;-67
2022/03/10 08:20:03;;;;;;;30.73;18.53;;;;;;;;;;5046810;28;20205;-67
2022/03/10 08:22:28;;;;;;;27.60;18.30;;;;;;;;;;5047193;28;20177;-67
2022/03/10 08:24:54;;;;;;;30.13;19.07;;;;;;;;;;5051389;28;20198;-66
2022/03/10 08:27:19;;;;;;;25.93;19.20;;;;;;;;;;5048652;28;20309;-67
2022/03/10 08:29:45;;;;;;;24.43;17.33;;;;;;;;;;5050299;28;20197;-67
2022/03/10 08:32:10;;;;;;;26.97;18.43;;;;;;;;;;5051123;28;20174;-66
2022/03/10 08:34:36;;;;;;;26.87;18.13;;;;;;;;;;5049625;28;20261;-67
2022/03/10 08:37:02;;;;;;;24.90;18.53;;;;;;;;;;5041646;28;20593;-67
2022/03/10 08:39:27;;;;;;;29.10;18.50;;;;;;;;;;5051460;28;20220;-67
2022/03/10 08:41:53;;;;;;;26.07;18.47;;;;;;;;;;5042007;28;20178;-67
2022/03/10 08:44:19;;;;;;;26.00;18.33;;;;;;;;;;5034392;28;20185;-67
2022/03/10 08:46:44;;;;;;;24.80;17.93;;;;;;;;;;5037617;28;20232;-67
2022/03/10 08:49:09;;;;;;;31.57;19.23;;;;;;;;;;5045471;28;20674;-66
2022/03/10 08:51:35;;;;;;;27.07;18.40;;;;;;;;;;5045384;28;20264;-67
2022/03/10 08:54:00;;;;;;;24.77;18.03;;;;;;;;;;5048487;28;20182;-67
2022/03/10 08:56:25;;;;;;;26.40;18.10;;;;;;;;;;5047786;28;20220;-66
2022/03/10 08:58:50;;;;;;;27.63;18.83;;;;;;;;;;5045277;28;20178;-67
2022/03/10 09:01:15;;;;;;;26.93;18.13;;;;;;;;;;5046779;28;20667;-68
2022/03/10 09:03:40;;;;;;;25.57;18.63;;;;;;;;;;5050501;28;20754;-68
2022/03/10 09:06:07;;;;;;;27.00;18.37;;;;;;;;;;5040909;28;20256;-68
2022/03/10 09:08:32;;;;;;;29.43;19.60;;;;;;;;;;5048933;28;20194;-68
2022/03/10 09:10:57;;;;;;;26.60;20.23;;;;;;;;;;5038170;28;20572;-68
2022/03/10 09:13:23;;;;;;;23.73;18.17;;;;;;;;;;5048416;28;20719;-68
2022/03/10 09:15:48;;;;;;;26.97;18.30;;;;;;;;;;5047111;28;20173;-68
2022/03/10 09:18:13;;;;;;;29.30;20.13;;;;;;;;;;5045483;28;20189;-68
2022/03/10 09:20:39;;;;;;;25.17;19.10;;;;;;;;;;5045533;28;20767;-68
2022/03/10 09:23:04;;;;;;;28.87;19.23;;;;;;;;;;5044051;28;20554;-68
2022/03/10 09:25:29;;;;;;;29.37;18.77;;;;;;;;;;5051424;28;20557;-68
2022/03/10 09:27:54;;;;;;;27.63;19.83;;;;;;;;;;5043509;28;20182;-68
2022/03/10 09:30:20;;;;;;;30.85;19.27;;;;;;;;;;5045889;28;20212;-68
2022/03/10 09:32:45;;;;;;;28.90;19.25;;;;;;;;;;5034983;28;20843;-67
2022/03/10 09:35:11;;;;;;;26.10;18.77;;;;;;;;;;5043454;28;20173;-67
2022/03/10 09:37:37;;;;;;;28.55;20.52;;;;;;;;;;5046853;28;20197;-68
2022/03/10 09:40:02;;;;;;;28.23;19.42;;;;;;;;;;5045786;28;20672;-68
2022/03/10 09:42:29;;;;;;;26.95;18.35;;;;;;;;;;5049441;28;20182;-68
2022/03/10 09:44:58;;;;;;;26.17;18.73;;;;;;;;;;5029616;28;20208;-68
2022/03/10 09:47:24;;;;;;;24.85;18.23;;;;;;;;;;5041434;28;20556;-67
2022/03/10 09:49:49;;;;;;;24.52;18.05;;;;;;;;;;5037851;28;20213;-68
2022/03/10 09:52:14;;;;;;;23.40;17.38;;;;;;;;;;5038081;28;22808;-68
2022/03/10 09:54:39;;;;;;;28.75;18.83;;;;;;;;;;5043869;28;20499;-68
2022/03/10 09:57:06;;;;;;;27.02;18.42;;;;;;;;;;5040793;28;20208;-68
2022/03/10 09:59:32;;;;;;;27.52;18.73;;;;;;;;;;5045623;28;20201;-69
2022/03/10 10:01:57;;;;;;;26.55;17.75;;;;;;;;;;5045902;28;20606;-67
2022/03/10 10:04:22;;;;;;;23.73;17.50;;;;;;;;;;5040076;28;20569;-68
2022/03/10 10:07:04;;;;;;;25.02;18.45;;;;;;;;;;5046779;28;20203;-67
2022/03/10 10:09:53;;;;;;;23.35;17.38;;;;;;;;;;5041476;28;20750;-67
2022/03/10 10:12:22;;;;;;;26.55;18.73;;;;;;;;;;5046169;28;20234;-68
2022/03/10 10:14:48;;;;;;;28.02;19.63;;;;;;;;;;5044287;28;20185;-68
2022/03/10 10:17:13;;;;;;;25.73;17.85;;;;;;;;;;5044673;28;20174;-67
2022/03/10 10:19:40;;;;;;;26.13;18.50;;;;;;;;;;5048829;28;20198;-68
2022/03/10 10:22:12;;;;;;;24.70;18.30;;;;;;;;;;5050907;28;20184;-68
2022/03/10 10:24:38;;;;;;;26.00;17.17;;;;;;;;;;5046734;28;20181;-67
2022/03/10 10:27:13;;;;;;;29.02;20.33;;;;;;;;;;5023583;28;20182;-68
2022/03/10 10:29:52;;;;;;;24.73;17.83;;;;;;;;;;5043122;28;20201;-68
2022/03/10 10:32:44;;;;;;;26.60;18.50;;;;;;;;;;5042376;28;20197;-68
2022/03/10 10:35:13;;;;;;;26.83;19.83;;;;;;;;;;5038847;28;20208;-67
2022/03/10 10:37:39;;;;;;;25.35;18.27;;;;;;;;;;5048718;28;20201;-68
2022/03/10 10:40:05;;;;;;;31.88;18.63;;;;;;;;;;5045932;28;20251;-67
2022/03/10 10:42:31;;;;;;;28.10;19.17;;;;;;;;;;5040002;28;20205;-68
2022/03/10 10:44:58;;;;;;;22.80;18.80;;;;;;;;;;5049290;28;20174;-68
2022/03/10 10:47:26;;;;;;;25.60;18.23;;;;;;;;;;5045444;28;20178;-68
2022/03/10 10:49:58;;;;;;;27.70;18.90;;;;;;;;;;5048640;28;20252;-67
2022/03/10 10:52:24;;;;;;;24.65;17.90;;;;;;;;;;5029631;28;20571;-68
2022/03/10 10:55:02;;;;;;;23.33;18.98;;;;;;;;;;5048785;28;20166;-67
2022/03/10 10:57:32;;;;;;;27.55;19.58;;;;;;;;;;5038510;28;20228;-68
2022/03/10 11:00:11;;;;;;;24.45;19.00;;;;;;;;;;5024817;28;20232;-68
2022/03/10 11:02:43;;;;;;;28.55;19.13;;;;;;;;;;5043463;28;20278;-68
2022/03/10 11:05:09;;;;;;;28.63;19.98;;;;;;;;;;5048163;28;20592;-67
2022/03/10 11:07:35;;;;;;;26.00;19.63;;;;;;;;;;5042296;28;20549;-68
2022/03/10 11:10:02;;;;;;;27.02;18.58;;;;;;;;;;5048461;28;20202;-67
2022/03/10 11:12:27;;;;;;;23.88;18.70;;;;;;;;;;5044222;28;20177;-68
2022/03/10 11:14:52;;;;;;;28.08;19.17;;;;;;;;;;5047828;28;20201;-68
2022/03/10 11:17:18;;;;;;;22.50;19.33;;;;;;;;;;5048028;28;20178;-68
2022/03/10 11:19:45;;;;;;;23.10;17.77;;;;;;;;;;5029949;28;20201;-67
2022/03/10 11:22:16;;;;;;;27.05;19.45;;;;;;;;;;5048418;28;20686;-67
2022/03/10 11:25:00;;;;;;;22.98;17.55;;;;;;;;;;5043339;28;20174;-67
2022/03/10 11:27:31;;;;;;;26.80;18.73;;;;;;;;;;5048857;28;20174;-67
2022/03/10 11:29:59;;;;;;;21.23;18.00;;;;;;;;;;5046372;28;20440;-66
2022/03/10 11:32:28;;;;;;;26.77;18.95;;;;;;;;;;5052783;28;20832;-67
2022/03/10 11:34:55;;;;;;;22.65;17.80;;;;;;;;;;5048711;28;20855;-67
2022/03/10 11:37:36;;;;;;;24.88;19.17;;;;;;;;;;5033347;28;20185;-68
2022/03/10 11:40:03;;;;;;;25.15;18.67;;;;;;;;;;5047663;28;20236;-67
2022/03/10 11:42:32;;;;;;;25.38;18.75;;;;;;;;;;5047722;28;20552;-67
2022/03/10 11:45:16;;;;;;;25.38;18.50;;;;;;;;;;5052153;28;20197;-67
2022/03/10 11:47:41;;;;;;;26.27;19.15;;;;;;;;;;5045041;28;20177;-68
2022/03/10 11:50:22;;;;;;;22.80;16.88;;;;;;;;;;5057745;28;20285;-67
2022/03/10 11:52:50;;;;;;;22.10;17.25;;;;;;;;;;5050766;28;20238;-67
2022/03/10 11:55:16;;;;;;;22.95;18.05;;;;;;;;;;5045967;28;20177;-67
2022/03/10 11:57:43;;;;;;;21.30;17.20;;;;;;;;;;5046763;28;20697;-67
2022/03/10 12:00:08;;;;;;;21.38;17.02;;;;;;;;;;5039752;28;20288;-65
2022/03/10 12:02:40;;;;;;;20.20;16.27;;;;;;;;;;5046970;28;20735;-67
2022/03/10 12:05:06;;;;;;;23.40;16.70;;;;;;;;;;5042086;28;20183;-67
2022/03/10 12:07:32;;;;;;;22.02;17.50;;;;;;;;;;5047164;28;20184;-67
2022/03/10 12:10:15;;;;;;;20.77;15.32;;;;;;;;;;5050166;28;20208;-67
2022/03/10 12:12:45;;;;;;;21.33;16.67;;;;;;;;;;5044134;28;20173;-68
2022/03/10 12:15:26;;;;;;;20.20;16.35;;;;;;;;;;5051248;28;20215;-67
2022/03/10 12:17:54;;;;;;;22.92;15.95;;;;;;;;;;5047701;28;20228;-67
2022/03/10 12:20:26;;;;;;;19.77;15.60;;;;;;;;;;5042328;28;20220;-67
2022/03/10 12:23:03;;;;;;;20.00;14.57;;;;;;;;;;5050396;28;20192;-67
2022/03/10 12:25:29;;;;;;;23.38;16.50;;;;;;;;;;5052030;28;20218;-67
2022/03/10 12:27:55;;;;;;;21.45;15.55;;;;;;;;;;5049712;28;20206;-66
2022/03/10 12:30:21;;;;;;;20.60;15.35;;;;;;;;;;5049843;28;20217;-67
2022/03/10 12:32:49;;;;;;;24.58;16.60;;;;;;;;;;5052006;28;20188;-67
2022/03/10 12:35:14;;;;;;;20.13;15.18;;;;;;;;;;5047039;28;20186;-67
2022/03/10 12:37:45;;;;;;;19.88;14.15;;;;;;;;;;5051490;28;20558;-67
2022/03/10 12:40:15;;;;;;;22.23;15.57;;;;;;;;;;5050775;28;20221;-67
2022/03/10 12:42:41;;;;;;;22.08;14.98;;;;;;;;;;5051142;28;20186;-67
2022/03/10 12:45:07;;;;;;;21.02;15.43;;;;;;;;;;5051727;28;20185;-67
2022/03/10 12:47:32;;;;;;;21.83;15.20;;;;;;;;;;5055216;28;20173;-67
2022/03/10 12:49:58;;;;;;;20.50;14.52;;;;;;;;;;5055686;28;20217;-68
2022/03/10 12:52:27;;;;;;;19.67;15.32;;;;;;;;;;5048734;28;20201;-67
2022/03/10 12:54:52;;;;;;;22.05;15.25;;;;;;;;;;5028329;28;20166;-67
2022/03/10 12:57:17;;;;;;;19.70;15.02;;;;;;;;;;5049484;28;20242;-67
2022/03/10 12:59:43;;;;;;;19.20;14.13;;;;;;;;;;5047277;28;20205;-67
2022/03/10 13:02:26;;;;;;;21.07;15.50;;;;;;;;;;5050162;28;20425;-67
2022/03/10 13:04:55;;;;;;;20.05;14.52;;;;;;;;;;5052376;28;20420;-67
2022/03/10 13:07:21;;;;;;;19.98;16.20;;;;;;;;;;5050282;28;20263;-67
2022/03/10 13:09:50;;;;;;;19.55;14.40;;;;;;;;;;5042026;28;20213;-68
2022/03/10 13:12:22;;;;;;;21.27;14.77;;;;;;;;;;5046490;28;20174;-68
2022/03/10 13:14:47;;;;;;;20.30;15.18;;;;;;;;;;5046348;28;20162;-67
2022/03/10 13:17:13;;;;;;;20.27;14.47;;;;;;;;;;5050335;28;20175;-68
2022/03/10 13:19:41;;;;;;;20.92;14.65;;;;;;;;;;5046863;28;20478;-67
2022/03/10 13:22:06;;;;;;;19.15;15.00;;;;;;;;;;5050904;28;20277;-67
2022/03/10 13:24:41;;;;;;;18.33;14.10;;;;;;;;;;5047583;28;20616;-67
2022/03/10 13:27:08;;;;;;;18.65;14.25;;;;;;;;;;5050142;28;20177;-68
2022/03/10 13:29:33;;;;;;;20.98;14.50;;;;;;;;;;5047577;28;20682;-66
2022/03/10 13:31:58;;;;;;;18.67;14.25;;;;;;;;;;5048817;28;20204;-66
2022/03/10 13:34:24;;;;;;;19.00;14.38;;;;;;;;;;5046795;28;20170;-66
2022/03/10 13:36:49;;;;;;;17.88;13.93;;;;;;;;;;5045845;28;20708;-66
2022/03/10 13:39:14;;;;;;;19.00;14.75;;;;;;;;;;5050020;28;20181;-66
2022/03/10 13:41:42;;;;;;;19.58;15.18;;;;;;;;;;5049261;28;20174;-66
2022/03/10 13:44:17;;;;;;;18.42;14.88;;;;;;;;;;5041871;28;20170;-66
2022/03/10 13:46:42;;;;;;;22.00;15.63;;;;;;;;;;5036077;28;20273;-66
2022/03/10 13:49:21;;;;;;;21.88;16.63;;;;;;;;;;5047885;28;20741;-66
2022/03/10 13:51:47;;;;;;;19.00;14.43;;;;;;;;;;5047531;28;20220;-66
2022/03/10 13:54:13;;;;;;;22.05;14.98;;;;;;;;;;5046818;28;20177;-66
2022/03/10 13:56:42;;;;;;;20.75;16.15;;;;;;;;;;5044411;28;20204;-66
2022/03/10 13:59:09;;;;;;;18.85;15.57;;;;;;;;;;5044620;28;20189;-66
2022/03/10 14:01:38;;;;;;;22.65;15.80;;;;;;;;;;5052388;28;20182;-66
2022/03/10 14:04:17;;;;;;;21.60;16.08;;;;;;;;;;5035194;28;20252;-65
2022/03/10 14:06:46;;;;;;;22.00;16.48;;;;;;;;;;5041982;28;20617;-66
2022/03/10 14:09:21;;;;;;;24.63;16.25;;;;;;;;;;5044038;28;20205;-66
2022/03/10 14:11:47;;;;;;;21.27;16.27;;;;;;;;;;5045724;28;20241;-67
2022/03/10 14:14:12;;;;;;;21.30;15.65;;;;;;;;;;5024633;28;20292;-66
2022/03/10 14:16:48;;;;;;;26.00;17.38;;;;;;;;;;5044505;28;20260;-67
2022/03/10 14:19:19;;;;;;;19.85;13.68;;;;;;;;;;5045265;28;20670;-67